Time;durP1;ratioP1;P1;durP2;ratioP2;P2;SDS_P1;SDS_P2;PMS_P1;PMS_P2;Temp;Humidity;BMP_temperature;BMP_pressure;BME280_temperature;BME280_humidity;BME280_pressure;Samples;Min_cycle;Max_cycle;Signal;HPM_P1;HPM_P2
2021/12/13 15:29:19;;;;;;;;;;;1.10;99.90;;;;;;5092309;28;19919;-94
2021/12/13 15:31:45;;;;;;;;;;;1.10;99.90;;;;;;5084637;28;19988;-95
2021/12/13 15:34:19;;;;;;;;;;;1.20;99.90;;;;;;5073260;28;19987;-95
2021/12/13 15:36:45;;;;;;;;;;;1.30;99.90;;;;;;5070567;28;19959;-95
2021/12/13 15:39:12;;;;;;;;;;;1.40;99.90;;;;;;5073056;28;19925;-96
2021/12/13 15:41:39;;;;;;;;;;;1.50;99.90;;;;;;5078809;28;20276;-94
2021/12/13 15:44:11;;;;;;;;;;;1.60;99.90;;;;;;5083532;28;19912;-95
2021/12/13 15:46:39;;;;;;;;;;;1.60;99.90;;;;;;5082046;28;19912;-94
2021/12/13 15:51:54;;;;;;;;;;;1.80;99.90;;;;;;5086367;28;19924;-95
2021/12/13 15:54:41;;;;;;;;;;;1.90;99.90;;;;;;5070988;28;19909;-94
2021/12/13 15:57:18;;;;;;;;;;;2.00;99.90;;;;;;5084178;28;20343;-95
2021/12/13 15:59:48;;;;;;;;;;;2.00;99.90;;;;;;5091120;28;19916;-96
2021/12/13 16:02:16;;;;;;;;;;;2.00;99.90;;;;;;5073961;28;19915;-94
2021/12/13 16:04:47;;;;;;;;;;;2.10;99.90;;;;;;5077756;28;19908;-96
2021/12/13 16:07:14;;;;;;;;;;;2.10;99.90;;;;;;5082730;28;19908;-94
2021/12/13 16:09:47;;;;;;;;;;;2.10;99.90;;;;;;5093132;28;19908;-96
2021/12/13 16:12:13;;;;;;;;;;;2.10;99.90;;;;;;5087950;28;19915;-95
2021/12/13 16:14:42;;;;;;;;;;;2.10;99.90;;;;;;5081587;28;19913;-95
2021/12/13 16:17:10;;;;;;;;;;;2.10;99.90;;;;;;5090006;28;20015;-95
2021/12/13 16:19:36;;;;;;;;;;;2.20;99.90;;;;;;5087802;28;20035;-95
2021/12/13 16:22:04;;;;;;;;;;;2.20;99.90;;;;;;5080989;28;19964;-94
2021/12/13 16:24:30;;;;;;;;;;;2.20;99.90;;;;;;5059168;28;20280;-96
2021/12/13 16:26:55;;;;;;;;;;;2.20;99.90;;;;;;5083268;28;19909;-96
2021/12/13 16:29:24;;;;;;;;;;;2.10;99.90;;;;;;5084952;28;19947;-95
2021/12/13 16:31:51;;;;;;;;;;;2.10;99.90;;;;;;5091016;28;19945;-94
2021/12/13 16:34:21;;;;;;;;;;;2.20;99.90;;;;;;5083179;28;20304;-91
2021/12/13 16:36:55;;;;;;;;;;;2.10;99.90;;;;;;5085470;28;20376;-91
2021/12/13 16:39:21;;;;;;;;;;;2.20;99.90;;;;;;5076592;28;19916;-90
2021/12/13 16:41:48;;;;;;;;;;;2.20;99.90;;;;;;5071408;28;19916;-90
2021/12/13 16:44:16;;;;;;;;;;;2.20;99.90;;;;;;5087921;28;19912;-90
2021/12/13 16:46:43;;;;;;;;;;;2.20;99.90;;;;;;5057056;28;19909;-90
2021/12/13 16:49:13;;;;;;;;;;;2.20;99.90;;;;;;5059044;28;19974;-91
2021/12/13 16:51:46;;;;;;;;;;;2.20;99.90;;;;;;5058513;28;20310;-91
2021/12/13 16:54:14;;;;;;;;;;;2.20;99.90;;;;;;5080969;28;20428;-91
2021/12/13 16:56:40;;;;;;;;;;;2.20;99.90;;;;;;5064531;28;20003;-92
2021/12/13 16:59:07;;;;;;;;;;;2.10;99.90;;;;;;5049664;28;20428;-90
2021/12/13 17:01:38;;;;;;;;;;;2.20;99.90;;;;;;5064763;28;19966;-94
2021/12/13 17:04:06;;;;;;;;;;;2.10;99.90;;;;;;5060740;28;19970;-95
2021/12/13 17:06:40;;;;;;;;;;;2.10;99.90;;;;;;5067807;28;20357;-94
2021/12/13 17:09:07;;;;;;;;;;;2.20;99.90;;;;;;5057681;28;19913;-92
2021/12/13 17:11:33;;;;;;;;;;;2.20;99.90;;;;;;5039702;28;19916;-93
2021/12/13 17:14:01;;;;;;;;;;;2.20;99.90;;;;;;5048865;28;19952;-91
2021/12/13 17:16:31;;;;;;;;;;;2.20;99.90;;;;;;5050814;28;19955;-91
2021/12/13 17:19:00;;;;;;;;;;;2.10;99.90;;;;;;5055420;28;20019;-91
2021/12/13 17:21:33;;;;;;;;;;;2.10;99.90;;;;;;5056284;28;20015;-91
2021/12/13 17:24:01;;;;;;;;;;;2.10;99.90;;;;;;5053614;28;20276;-91
2021/12/13 17:26:29;;;;;;;;;;;2.10;99.90;;;;;;5047539;28;19989;-93
2021/12/13 17:29:21;;;;;;;;;;;2.10;99.90;;;;;;5065103;28;19925;-92
2021/12/13 17:31:46;;;;;;;;;;;2.10;99.90;;;;;;5025538;28;19962;-93
2021/12/13 17:34:30;;;;;;;;;;;2.00;99.90;;;;;;5052894;28;19916;-92
2021/12/13 17:37:16;;;;;;;;;;;2.00;99.90;;;;;;5058161;28;19912;-91
2021/12/13 17:39:44;;;;;;;;;;;2.10;99.90;;;;;;5044750;28;19952;-92
2021/12/13 17:42:12;;;;;;;;;;;2.00;99.90;;;;;;5058357;28;20290;-92
2021/12/13 17:44:38;;;;;;;;;;;2.00;99.90;;;;;;5057793;28;19948;-94
2021/12/13 17:47:04;;;;;;;;;;;2.10;99.90;;;;;;5060312;28;19924;-94
2021/12/13 17:49:39;;;;;;;;;;;2.10;99.90;;;;;;5049854;28;20365;-91
2021/12/13 17:52:05;;;;;;;;;;;2.10;99.90;;;;;;5070731;28;19919;-90
2021/12/13 17:54:43;;;;;;;;;;;2.10;99.90;;;;;;5060398;28;19913;-92
2021/12/13 17:57:09;;;;;;;;;;;2.10;99.90;;;;;;5058241;28;19913;-93
2021/12/13 17:59:34;;;;;;;;;;;2.10;99.90;;;;;;5054449;28;19927;-91
2021/12/13 18:02:13;;;;;;;;;;;2.10;99.90;;;;;;5056800;28;19978;-96
2021/12/13 18:05:10;;;;;;;;;;;2.10;99.90;;;;;;5062387;28;19919;-92
2021/12/13 18:07:38;;;;;;;;;;;2.10;99.90;;;;;;5052995;28;19917;-91
2021/12/13 18:10:05;;;;;;;;;;;2.10;99.90;;;;;;5060195;28;19962;-91
2021/12/13 18:12:33;;;;;;;;;;;2.10;99.90;;;;;;5073084;28;20667;-93
2021/12/13 18:15:02;;;;;;;;;;;2.10;99.90;;;;;;5062809;28;19916;-93
2021/12/13 18:17:36;;;;;;;;;;;2.10;99.90;;;;;;5074028;28;19916;-95
2021/12/13 18:20:21;;;;;;;;;;;2.10;99.90;;;;;;5062942;28;19920;-95
2021/12/13 18:23:00;;;;;;;;;;;2.10;99.90;;;;;;5073160;28;20376;-95
2021/12/13 18:25:27;;;;;;;;;;;2.10;99.90;;;;;;5067474;28;19944;-95
2021/12/13 18:27:57;;;;;;;;;;;2.10;99.90;;;;;;5059441;28;19978;-95
2021/12/13 18:30:26;;;;;;;;;;;2.00;99.90;;;;;;5067704;28;20311;-92
2021/12/13 18:32:51;;;;;;;;;;;2.00;99.90;;;;;;5081346;28;19967;-89
2021/12/13 18:35:23;;;;;;;;;;;2.00;99.90;;;;;;5048062;28;19971;-92
2021/12/13 18:37:49;;;;;;;;;;;2.10;99.90;;;;;;5066743;28;19924;-91
2021/12/13 18:40:23;;;;;;;;;;;2.10;99.90;;;;;;5049058;28;19913;-91
2021/12/13 18:43:03;;;;;;;;;;;2.10;99.90;;;;;;5037845;28;19916;-89
2021/12/13 18:45:31;;;;;;;;;;;2.10;99.90;;;;;;5070535;28;19919;-91
2021/12/13 18:47:57;;;;;;;;;;;2.00;99.90;;;;;;5054444;28;19978;-96
2021/12/13 18:50:25;;;;;;;;;;;2.10;99.90;;;;;;5063233;28;20368;-96
2021/12/13 18:52:53;;;;;;;;;;;2.10;99.90;;;;;;5057516;28;19913;-96
2021/12/13 18:55:32;;;;;;;;;;;2.10;99.90;;;;;;5056974;28;19943;-95
2021/12/13 18:58:24;;;;;;;;;;;2.10;99.90;;;;;;5057396;28;19924;-91
2021/12/13 19:00:54;;;;;;;;;;;2.00;99.90;;;;;;5065819;28;19920;-94
2021/12/13 19:03:31;;;;;;;;;;;2.00;99.90;;;;;;5061599;28;19913;-92
2021/12/13 19:06:12;;;;;;;;;;;2.00;99.90;;;;;;5075155;28;20373;-96
2021/12/13 19:08:53;;;;;;;;;;;2.00;99.90;;;;;;5065556;28;19963;-96
2021/12/13 19:11:33;;;;;;;;;;;2.10;99.90;;;;;;5080385;28;20377;-95
2021/12/13 19:14:07;;;;;;;;;;;2.10;99.90;;;;;;5070247;28;19919;-93
2021/12/13 19:16:41;;;;;;;;;;;2.10;99.90;;;;;;5071569;28;19917;-95
2021/12/13 19:19:10;;;;;;;;;;;2.10;99.90;;;;;;5073018;28;19928;-94
2021/12/13 19:21:43;;;;;;;;;;;2.10;99.90;;;;;;5062037;28;19913;-94
2021/12/13 19:24:18;;;;;;;;;;;2.10;99.90;;;;;;5056002;28;19920;-93
2021/12/13 19:26:49;;;;;;;;;;;2.10;99.90;;;;;;5058280;28;19913;-93
2021/12/13 19:29:30;;;;;;;;;;;2.10;99.90;;;;;;5063869;28;19921;-95
2021/12/13 19:31:57;;;;;;;;;;;2.10;99.90;;;;;;5063951;28;19920;-96
2021/12/13 19:34:25;;;;;;;;;;;2.10;99.90;;;;;;5058198;28;19908;-91
2021/12/13 19:37:06;;;;;;;;;;;2.10;99.90;;;;;;5073115;28;19913;-92
2021/12/13 19:39:40;;;;;;;;;;;2.10;99.90;;;;;;5074204;28;19927;-91
2021/12/13 19:42:29;;;;;;;;;;;2.10;99.90;;;;;;5074250;28;19923;-91
2021/12/13 19:44:56;;;;;;;;;;;2.00;99.90;;;;;;5056123;28;19948;-93
2021/12/13 19:47:28;;;;;;;;;;;2.00;99.90;;;;;;5055926;28;19908;-92
2021/12/13 19:49:55;;;;;;;;;;;2.00;99.90;;;;;;5055999;28;20361;-92
2021/12/13 20:03:52;;;;;;;;;;;1.60;99.90;;;;;;5112940;27;19912;-92
2021/12/13 20:06:44;;;;;;;;;;;1.50;99.90;;;;;;5145170;27;19944;-92
2021/12/13 20:09:17;;;;;;;;;;;1.40;99.90;;;;;;5108561;28;19930;-92
2021/12/13 20:11:45;;;;;;;;;;;1.40;99.90;;;;;;5110709;28;19934;-93
2021/12/13 20:14:21;;;;;;;;;;;1.40;99.90;;;;;;5111038;28;19915;-91
2021/12/13 20:16:50;;;;;;;;;;;1.40;99.90;;;;;;5110523;28;20371;-91
2021/12/13 20:19:18;;;;;;;;;;;1.40;99.90;;;;;;5110217;28;19912;-92
